EBBE - Beauvechain (baf, Belgium
Distance de la station: WNW 7km
Mis à jour: Mon, 21-Jan-2019 11:55am CET
Nuageux
Nuageux
 Wind from varies
Vent: varies 4 km/h
Température: 0°C
Point de rosée: -4°C
Humidité: 75%
Pression: 1023 hPa
Nuages: Nuageux
Visibilité: 10 km
Détails nuages: Nuageux 6706 m
2019/01/21 10:55 EBBE 211055Z VRB02KT 9999 FEW220 M00/M04 Q1023 BLU BLU
EBBR - Brussels Nationa, Belgium
Distance de la station: NW 32km
Mis à jour: Mon, 21-Jan-2019 11:50am CET
Clear
Clear
 Wind from varies
Vent: varies 2 km/h
Température: 0°C
Point de rosée: -4°C
Humidité: 75%
Pression: 1024 hPa
Résumé: Clear
Visibilité: greater than 10 km
2019/01/21 10:50 EBBR 211050Z VRB01KT CAVOK 00/M04 Q1024 NOSIG
 
EBDT - Schaffen, Belgium
Distance de la station: NNE 35km
Mis à jour: Mon, 21-Jan-2019 11:55am CET
Nuageux
Nuageux
 Wind from S
Vent: S 6 km/h
Température: -1°C
Point de rosée: -3°C
Humidité: 86%
Pression: 1024 hPa
Nuages: Nuageux
Visibilité: 8 km
Détails nuages: Nuageux 6706 m
2019/01/21 10:55 EBDT 211055Z 17003KT 8000 FEW220 M01/M03 Q1024 BLU BLU
EBCI - Charleroi/Gossel, Belgium
Distance de la station: SW 41km
Mis à jour: Mon, 21-Jan-2019 11:50am CET
Clear
Clear
 Wind from calm
Vent: Calm
Température: 0°C
Point de rosée: -4°C
Humidité: 75%
Pression: 1023 hPa
Résumé: Clear
Visibilité: greater than 10 km
2019/01/21 10:50 EBCI 211050Z 00000KT CAVOK 00/M04 Q1023 NOSIG
 
EBLG - Bierset/Liege (c, Belgium
Distance de la station: ESE 42km
Mis à jour: Mon, 21-Jan-2019 11:50am CET
Partiellement nuageux
Partiellement nuageux
 Wind from SSE
Vent: SSE 7 km/h
Température: -2°C
Temp Ressentie: -6°C
Point de rosée: -4°C
Humidité: 86%
Pression: 1023 hPa
Nuages: Partiellement nuageux
Visibilité: 6 km
2019/01/21 10:50 EBLG 211050Z 16004KT 130V190 6000 NSC M02/M04 Q1023 NOSIG
EBFS - Florennes (bel-A, Belgium
Distance de la station: SSW 59km
Mis à jour: Mon, 21-Jan-2019 11:55am CET
Nuageux
Nuageux
 Wind from varies
Vent: varies 2 km/h
Température: -1°C
Point de rosée: -5°C
Humidité: 75%
Pression: 1022 hPa
Nuages: Nuageux
Visibilité: 8 km
Détails nuages: Nuageux 6706 m
2019/01/21 10:55 EBFS 211055Z VRB01KT 8000 FEW220 M01/M05 Q1022 BLU BLU TEMPO WHT
 
EBAW - Antwerp/Deurne, Belgium
Distance de la station: NNW 60km
Mis à jour: Mon, 21-Jan-2019 11:50am CET
Clear
Clear
 Wind from WSW
Vent: WSW 6 km/h
Température: 1°C
Point de rosée: -3°C
Humidité: 75%
Pression: 1024 hPa
Résumé: Clear
Visibilité: greater than 10 km
2019/01/21 10:50 EBAW 211050Z 24003KT 220V290 CAVOK 01/M03 Q1024 NOSIG
EBBL - Kleine-Brogel(Ba, Belgium
Distance de la station: NE 65km
Mis à jour: Mon, 21-Jan-2019 11:55am CET
Nuageux
Nuageux
 Wind from varies
Vent: varies 4 km/h
Température: 0°C
Point de rosée: -4°C
Humidité: 75%
Pression: 1024 hPa
Nuages: Nuageux
Visibilité: 10 km
Détails nuages: Nuageux 6706 m
2019/01/21 10:55 EBBL 211055Z VRB02KT 9999 FEW220 M00/M04 Q1024 BLU BLU
 
EHBK - Zuid-Limburg/Bee, Netherlands
Distance de la station: ENE 67km
Mis à jour: Mon, 21-Jan-2019 11:55am CET
Serein
Serein
 Wind from SSW
Vent: SSW 9 km/h
Température: -2°C
Temp Ressentie: -6°C
Point de rosée: -4°C
Humidité: 86%
Pression: 1023 hPa
Nuages: Serein
Visibilité: 9 km
2019/01/21 10:55 EHBK 211055Z AUTO 21005KT 9000 NCD M02/M04 Q1023 NOSIG
EBCV - Chievres Ab, Belgium
Distance de la station: WSW 76km
Mis à jour: Mon, 21-Jan-2019 11:55am CET
Serein
Serein
 Wind from varies
Vent: varies 4 km/h
Température: 0°C
Point de rosée: -3°C
Humidité: 80%
Pression: 1024 hPa
Nuages: Serein
Visibilité: 9 km
2019/01/21 10:55 EBCV 211055Z AUTO VRB02KT 9000 NCD M00/M03 Q1024 BLU
 
ETNG - Geilenkirchen(Na, Germany
Distance de la station: ENE 86km
Mis à jour: Mon, 21-Jan-2019 11:50am CET
Clear
Clear
 Wind from W
Vent: W 4 km/h
Température: 1°C
Point de rosée: -4°C
Humidité: 70%
Pression: 1023 hPa
Résumé: Clear
Visibilité: greater than 10 km
2019/01/21 10:50 ETNG 211050Z 26002KT CAVOK 01/M04 Q1023 NOSIG
EHEH - Eindhoven Rnlafb, Netherlands
Distance de la station: NNE 88km
Mis à jour: Mon, 21-Jan-2019 11:55am CET
Serein
Serein
 Wind from varies
Vent: varies 4 km/h
Température: 0°C
Point de rosée: -4°C
Humidité: 75%
Pression: 1023 hPa
Nuages: Serein
Visibilité: 10 km
2019/01/21 10:55 EHEH 211055Z AUTO VRB02KT 9999 NCD 00/M04 Q1023 BLU 22003KT CAVOK
 
EHWO - Woensdrecht Rnla, Netherlands
Distance de la station: NNW 89km
Mis à jour: Mon, 21-Jan-2019 11:55am CET
Couvert
Couvert
 Wind from WSW
Vent: WSW 7 km/h
Température: 1°C
Temp Ressentie: -2°C
Point de rosée: -1°C
Humidité: 87%
Pression: 1023 hPa
Nuages: Couvert
Visibilité: 10 km
Détails nuages: Couvert 9449 m
2019/01/21 10:55 EHWO 211055Z AUTO 25004KT 9999 OVC310 01/M01 Q1023 BLU VRB02KT CAVOK BECMG 21003KT
EHGR - Gilze-Rijen Rnla, Netherlands
Distance de la station: N 93km
Mis à jour: Mon, 21-Jan-2019 11:55am CET
Serein
Serein
 Wind from varies
Vent: varies 6 km/h
Température: 0°C
Point de rosée: -2°C
Humidité: 87%
Pression: 1023 hPa
Nuages: Serein
Visibilité: 10 km
2019/01/21 10:55 EHGR 211055Z AUTO VRB03KT 9999 NCD 00/M02 Q1023 BLU VRB02KT 9999 CAVOK
 
EBLB - Elsenborn (mil), Belgium
Distance de la station: ESE 96km
Mis à jour: Mon, 21-Jan-2019 11:55am CET
Serein
Serein
 Wind from varies
Vent: varies 2 km/h
Température: -1°C
Point de rosée: -5°C
Humidité: 75%
Pression: 1020 hPa
Nuages: Serein
Visibilité: 10 km
2019/01/21 10:55 EBLB 211055Z AUTO VRB01KT 9999 NCD M01/M05 Q1020 BLU
EHVK - Volkel Rnlafb, Netherlands
Distance de la station: NNE 116km
Mis à jour: Mon, 21-Jan-2019 11:55am CET
Serein
Serein
 Wind from SW
Vent: SW 7 km/h
Température: 0°C
Temp Ressentie: -3°C
Point de rosée: -3°C
Humidité: 80%
Pression: 1023 hPa
Nuages: Serein
Visibilité: 10 km
2019/01/21 10:55 EHVK 211055Z AUTO 22004KT 200V260 9999 NCD M00/M03 Q1023 BLU 22004KT 9000 NSC
 
EHFS - Vlissingen, Netherlands
Distance de la station: NW 120km
Mis à jour: Mon, 21-Jan-2019 11:55am CET
Partiellement nuageux
Partiellement nuageux
 Wind from W
Vent: W 11 km/h
Température: 2°C
Temp Ressentie: -1°C
Point de rosée: 0°C
Humidité: 87%
Pression: 1023 hPa
Nuages: Partiellement nuageux
Visibilité: 10 km
2019/01/21 10:55 EHFS 211055Z AUTO 26006KT 9999 NSC 02/00 Q1023 W///H///
LFQQ - Lille/Lesquin, France
Distance de la station: W 126km
Mis à jour: Mon, 21-Jan-2019 12:00pm CET
Partiellement nuageux
Partiellement nuageux
 Wind from SW
Vent: SW 6 km/h
Température: 1°C
Point de rosée: -3°C
Humidité: 75%
Pression: 1024 hPa
Nuages: Partiellement nuageux
Visibilité: 7 km
2019/01/21 11:00 LFQQ 211100Z AUTO 22003KT 7000 NSC 01/M03 Q1024 TEMPO 4000 BR
 
EDLN - Monchengladbach, Germany
Distance de la station: ENE 127km
Mis à jour: Mon, 21-Jan-2019 11:50am CET
Partiellement nuageux
Partiellement nuageux
 Wind from varies
Vent: varies 6 km/h
Température: -2°C
Point de rosée: -5°C
Humidité: 80%
Pression: 1024 hPa
Nuages: Partiellement nuageux
Visibilité: 7 km
2019/01/21 10:50 EDLN 211050Z VRB03KT 7000 NSC M02/M05 Q1024
ETNN - Noervenich (gaf), Germany
Distance de la station: E 127km
Mis à jour: Mon, 21-Jan-2019 11:20am CET
Nuageux
Nuageux
 Wind from SSE
Vent: SSE 6 km/h
Température: -3°C
Point de rosée: -6°C
Humidité: 80%
Pression: 1023 hPa
Nuages: Nuageux
Visibilité: 10 km
Détails nuages: Nuageux 9144 m
2019/01/21 10:20 ETNN 211020Z 16003KT 9999 FEW300 M03/M06 Q1023 BLU+BLU+

Scritp par Saratoga-Weather.org
Traduction française par MétéoMélin